createdAt,value
2023-05-11T00:00:44.487Z,100.00
2023-05-11T00:03:50.819Z,100.00
2023-05-11T00:06:57.466Z,100.00
2023-05-11T00:10:03.612Z,100.00
2023-05-11T00:13:11.158Z,100.00
2023-05-11T00:16:17.127Z,100.00
2023-05-11T00:19:23.417Z,100.00
2023-05-11T00:22:30.046Z,100.00
2023-05-11T00:25:36.149Z,100.00
2023-05-11T00:28:43.262Z,100.00
2023-05-11T00:31:50.312Z,100.00
2023-05-11T00:34:56.268Z,100.00
2023-05-11T00:38:02.362Z,100.00
2023-05-11T00:41:08.873Z,100.00
2023-05-11T00:44:16.539Z,100.00
2023-05-11T00:47:22.752Z,100.00
2023-05-11T00:50:29.389Z,100.00
2023-05-11T00:53:35.496Z,100.00
2023-05-11T00:56:41.949Z,100.00
2023-05-11T00:59:50.688Z,100.00
2023-05-11T01:02:59.129Z,100.00
2023-05-11T01:06:11.788Z,100.00
2023-05-11T01:09:33.532Z,100.00
2023-05-11T01:12:49.312Z,100.00
2023-05-11T01:15:57.430Z,100.00
2023-05-11T01:19:12.494Z,100.00
2023-05-11T01:22:32.444Z,100.00
2023-05-11T01:26:03.868Z,100.00
2023-05-11T01:29:29.938Z,100.00
2023-05-11T01:32:41.645Z,100.00
2023-05-11T01:35:55.094Z,100.00
2023-05-11T01:39:04.762Z,100.00
2023-05-11T01:42:11.682Z,100.00
2023-05-11T01:45:20.194Z,100.00
2023-05-11T01:48:32.127Z,100.00
2023-05-11T01:51:39.940Z,100.00
2023-05-11T01:54:48.771Z,100.00
2023-05-11T01:57:57.221Z,100.00
2023-05-11T02:01:04.713Z,100.00
2023-05-11T02:04:14.550Z,100.00
2023-05-11T02:07:22.095Z,100.00
2023-05-11T02:10:29.256Z,100.00
2023-05-11T02:13:37.713Z,100.00
2023-05-11T02:16:45.950Z,100.00
2023-05-11T02:19:54.959Z,100.00
2023-05-11T02:23:02.303Z,100.00
2023-05-11T02:26:09.843Z,100.00
2023-05-11T02:29:16.109Z,100.00
2023-05-11T02:32:25.893Z,100.00
2023-05-11T02:35:37.202Z,100.00
2023-05-11T02:38:45.203Z,100.00
2023-05-11T02:41:57.655Z,100.00
2023-05-11T02:45:09.105Z,100.00
2023-05-11T02:48:26.611Z,100.00
2023-05-11T02:51:37.795Z,100.00
2023-05-11T02:54:44.523Z,100.00
2023-05-11T02:57:50.997Z,100.00
2023-05-11T03:00:57.622Z,100.00
2023-05-11T03:04:05.867Z,100.00
2023-05-11T03:07:13.585Z,100.00
2023-05-11T03:10:20.100Z,100.00
2023-05-11T03:13:27.242Z,100.00
2023-05-11T03:16:34.618Z,100.00
2023-05-11T03:19:42.760Z,100.00
2023-05-11T03:22:51.270Z,100.00
2023-05-11T03:25:58.920Z,100.00
2023-05-11T03:29:05.856Z,100.00
2023-05-11T03:32:12.057Z,100.00
2023-05-11T03:35:18.852Z,100.00
2023-05-11T03:38:30.894Z,100.00
2023-05-11T03:41:40.534Z,100.00
2023-05-11T03:44:49.626Z,100.00
2023-05-11T03:47:57.704Z,100.00
2023-05-11T03:51:05.915Z,100.00
2023-05-11T03:54:14.360Z,100.00
2023-05-11T03:57:20.178Z,100.00
2023-05-11T04:00:26.104Z,100.00
2023-05-11T04:03:32.122Z,100.00
2023-05-11T04:06:38.191Z,100.00
2023-05-11T04:09:45.547Z,100.00
2023-05-11T04:12:53.094Z,100.00
2023-05-11T04:15:59.480Z,100.00
2023-05-11T04:19:06.534Z,100.00
2023-05-11T04:22:13.307Z,100.00
2023-05-11T04:25:21.110Z,100.00
2023-05-11T04:28:28.098Z,100.00
2023-05-11T04:31:34.936Z,100.00
2023-05-11T04:34:42.846Z,100.00
2023-05-11T04:37:48.824Z,100.00
2023-05-11T04:40:56.106Z,100.00
2023-05-11T04:44:02.253Z,100.00
2023-05-11T04:47:08.440Z,100.00
2023-05-11T04:50:14.945Z,100.00
2023-05-11T04:53:20.912Z,100.00
2023-05-11T04:56:28.279Z,100.00
2023-05-11T04:59:34.767Z,100.00
2023-05-11T05:02:41.032Z,100.00
2023-05-11T05:05:47.135Z,100.00
2023-05-11T05:08:53.219Z,100.00
2023-05-11T05:12:01.725Z,100.00
2023-05-11T05:15:09.288Z,100.00
2023-05-11T05:18:15.213Z,100.00
2023-05-11T05:21:21.325Z,100.00
2023-05-11T05:24:27.393Z,100.00
2023-05-11T05:27:35.234Z,100.00
2023-05-11T05:30:41.606Z,100.00
2023-05-11T05:33:47.504Z,100.00
2023-05-11T05:36:53.780Z,100.00
2023-05-11T05:40:00.270Z,100.00
2023-05-11T05:43:07.664Z,100.00
2023-05-11T05:46:14.165Z,100.00
2023-05-11T05:49:20.166Z,100.00
2023-05-11T05:52:26.542Z,100.00
2023-05-11T05:55:32.515Z,100.00
2023-05-11T05:58:39.796Z,100.00
2023-05-11T06:01:47.574Z,100.00
2023-05-11T06:04:53.896Z,100.00
2023-05-11T06:08:09.665Z,100.00
2023-05-11T06:11:17.332Z,100.00
2023-05-11T06:14:25.046Z,100.00
2023-05-11T06:17:31.628Z,100.00
2023-05-11T06:20:37.651Z,100.00
2023-05-11T06:23:44.315Z,100.00
2023-05-11T06:26:50.205Z,100.00
2023-05-11T06:29:57.696Z,100.00
2023-05-11T06:33:03.739Z,100.00
2023-05-11T06:36:10.199Z,100.00
2023-05-11T06:39:16.366Z,100.00
2023-05-11T06:42:23.687Z,100.00
2023-05-11T06:45:31.161Z,100.00
2023-05-11T06:48:37.322Z,100.00
2023-05-11T06:51:43.548Z,100.00
2023-05-11T06:54:49.486Z,100.00
2023-05-11T06:57:55.814Z,100.00
2023-05-11T07:01:05.924Z,100.00
2023-05-11T07:04:12.087Z,100.00
2023-05-11T07:07:18.363Z,100.00
2023-05-11T07:10:24.628Z,100.00
2023-05-11T07:13:31.025Z,100.00
2023-05-11T07:16:38.824Z,100.00
2023-05-11T07:19:45.473Z,100.00
2023-05-11T07:22:51.877Z,100.00
2023-05-11T07:25:58.293Z,100.00
2023-05-11T07:29:04.422Z,100.00
2023-05-11T07:32:11.865Z,100.00
2023-05-11T07:35:18.397Z,100.00
2023-05-11T07:38:24.398Z,100.00
2023-05-11T07:41:30.996Z,100.00
2023-05-11T07:44:37.155Z,100.00
2023-05-11T07:47:45.285Z,100.00
2023-05-11T07:50:51.565Z,100.00
2023-05-11T07:53:57.842Z,100.00
2023-05-11T07:57:05.162Z,100.00
2023-05-11T08:00:12.607Z,100.00
2023-05-11T08:03:20.423Z,100.00
2023-05-11T08:06:26.679Z,100.00
2023-05-11T08:09:33.027Z,100.00
2023-05-11T08:12:39.757Z,100.00
2023-05-11T08:15:45.729Z,100.00
2023-05-11T08:18:53.387Z,100.00
2023-05-11T08:21:59.787Z,100.00
2023-05-11T08:25:06.492Z,100.00
2023-05-11T08:28:12.666Z,100.00
2023-05-11T08:31:18.986Z,100.00
2023-05-11T08:34:26.702Z,100.00
2023-05-11T08:37:32.746Z,100.00
2023-05-11T08:40:40.359Z,100.00
2023-05-11T08:43:47.601Z,100.00
2023-05-11T08:47:08.581Z,100.00
2023-05-11T08:50:23.819Z,100.00
2023-05-11T08:53:29.835Z,100.00
2023-05-11T08:56:37.624Z,100.00
2023-05-11T08:59:46.387Z,100.00
2023-05-11T09:02:53.707Z,100.00
2023-05-11T09:06:02.449Z,100.00
2023-05-11T09:09:10.264Z,100.00
2023-05-11T09:12:18.036Z,100.00
2023-05-11T09:15:24.571Z,100.00
2023-05-11T09:18:31.058Z,100.00
2023-05-11T09:21:40.091Z,100.00
2023-05-11T09:24:46.605Z,100.00
2023-05-11T09:27:53.692Z,100.00
2023-05-11T09:31:00.443Z,100.00
2023-05-11T09:34:11.804Z,100.00
2023-05-11T09:37:20.356Z,100.00
2023-05-11T09:40:27.596Z,100.00
2023-05-11T09:43:33.796Z,100.00
2023-05-11T09:46:40.711Z,100.00
2023-05-11T09:49:48.178Z,100.00
2023-05-11T09:52:56.006Z,100.00
2023-05-11T09:56:02.595Z,98.65
2023-05-11T09:59:08.828Z,98.95
2023-05-11T10:02:24.067Z,100.00
2023-05-11T10:05:32.568Z,100.00
2023-05-11T10:08:40.689Z,100.00
2023-05-11T10:11:48.160Z,94.44
2023-05-11T10:14:57.306Z,97.52
2023-05-11T10:18:03.688Z,97.33
2023-05-11T10:21:10.357Z,96.74
2023-05-11T10:24:20.407Z,97.88
2023-05-11T10:27:29.175Z,97.05
2023-05-11T10:30:37.305Z,96.17
2023-05-11T10:33:44.590Z,99.76
2023-05-11T10:36:53.370Z,96.22
2023-05-11T10:40:01.200Z,97.93
2023-05-11T10:43:44.384Z,95.55
2023-05-11T10:47:10.831Z,96.18
2023-05-11T10:50:37.798Z,94.93
2023-05-11T10:53:59.689Z,95.22
2023-05-11T10:57:16.883Z,95.44
2023-05-11T11:01:14.157Z,98.51
2023-05-11T11:04:20.622Z,95.64
2023-05-11T11:07:26.725Z,92.55
2023-05-11T11:10:34.802Z,91.52
2023-05-11T11:14:01.928Z,86.85
2023-05-11T11:17:25.119Z,84.95
2023-05-11T11:20:50.867Z,84.44
2023-05-11T11:23:57.049Z,89.30
2023-05-11T11:27:03.224Z,90.65
2023-05-11T11:30:19.528Z,90.30
2023-05-11T11:33:35.782Z,83.63
2023-05-11T11:37:06.453Z,93.16
2023-05-11T11:40:15.741Z,91.19
2023-05-11T11:43:24.802Z,81.53
2023-05-11T11:46:32.179Z,85.07
2023-05-11T11:49:39.387Z,87.22
2023-05-11T11:52:45.582Z,91.00
2023-05-11T11:55:52.771Z,89.73
2023-05-11T11:58:59.875Z,89.48
2023-05-11T12:02:09.071Z,82.28
2023-05-11T12:05:18.956Z,84.14
2023-05-11T12:08:27.811Z,84.32
2023-05-11T12:11:34.470Z,89.56
2023-05-11T12:14:49.006Z,85.60
2023-05-11T12:17:57.647Z,87.56
2023-05-11T12:21:04.198Z,85.76
2023-05-11T12:24:13.269Z,80.00
2023-05-11T12:27:19.873Z,87.87
2023-05-11T12:30:28.117Z,87.61
2023-05-11T12:33:45.797Z,82.57
2023-05-11T12:36:53.504Z,82.45
2023-05-11T12:40:00.466Z,81.91
2023-05-11T12:43:06.954Z,82.38
2023-05-11T12:46:13.528Z,85.90
2023-05-11T12:52:30.874Z,86.83
2023-05-11T12:55:37.297Z,87.64
2023-05-11T12:58:43.681Z,84.81
2023-05-11T13:01:49.807Z,81.98
2023-05-11T13:04:57.230Z,85.66
2023-05-11T13:08:04.770Z,89.36
2023-05-11T13:11:22.486Z,86.03
2023-05-11T13:14:32.473Z,87.15
2023-05-11T13:17:39.418Z,87.38
2023-05-11T13:20:46.775Z,87.91
2023-05-11T13:23:54.520Z,90.14
2023-05-11T13:27:00.979Z,89.93
2023-05-11T13:30:08.497Z,86.91
2023-05-11T13:33:14.572Z,87.39
2023-05-11T13:36:23.183Z,89.87
2023-05-11T13:39:29.326Z,86.72
2023-05-11T13:42:35.437Z,90.24
2023-05-11T13:45:41.887Z,86.73
2023-05-11T13:48:47.918Z,84.05
2023-05-11T13:51:55.671Z,85.03
2023-05-11T13:55:01.866Z,85.17
2023-05-11T13:58:08.399Z,84.16
2023-05-11T14:01:14.526Z,83.38
2023-05-11T14:04:20.616Z,90.13
2023-05-11T14:07:39.118Z,87.64
2023-05-11T14:10:53.191Z,85.88
2023-05-11T14:13:59.284Z,86.71
2023-05-11T14:17:05.525Z,87.89
2023-05-11T14:20:12.813Z,86.33
2023-05-11T14:23:20.700Z,88.02
2023-05-11T14:26:26.807Z,86.19
2023-05-11T14:29:32.829Z,83.50
2023-05-11T14:32:38.896Z,87.20
2023-05-11T14:35:45.723Z,83.78
2023-05-11T14:38:53.494Z,85.50
2023-05-11T14:41:59.741Z,85.06
2023-05-11T14:45:07.072Z,86.61
2023-05-11T14:48:13.334Z,86.27
2023-05-11T14:51:21.963Z,88.39
2023-05-11T14:54:29.518Z,90.75
2023-05-11T14:57:35.789Z,90.43
2023-05-11T15:00:42.110Z,90.46
2023-05-11T15:03:48.179Z,92.87
2023-05-11T15:06:54.173Z,95.55
2023-05-11T15:10:02.351Z,95.01
2023-05-11T15:13:10.569Z,96.75
2023-05-11T15:16:17.078Z,95.74
2023-05-11T15:19:23.312Z,98.41
2023-05-11T15:22:29.299Z,98.70
2023-05-11T15:25:36.960Z,99.74
2023-05-11T15:28:43.024Z,100.00
2023-05-11T15:31:49.258Z,99.89
2023-05-11T15:34:59.684Z,100.00
2023-05-11T15:38:06.800Z,100.00
2023-05-11T15:41:14.641Z,100.00
2023-05-11T15:44:20.890Z,100.00
2023-05-11T15:47:27.350Z,100.00
2023-05-11T15:50:33.804Z,100.00
2023-05-11T15:53:39.706Z,100.00
2023-05-11T15:56:47.314Z,100.00
2023-05-11T15:59:53.300Z,100.00
2023-05-11T16:02:59.251Z,100.00
2023-05-11T16:06:06.235Z,100.00
2023-05-11T16:09:12.602Z,100.00
2023-05-11T16:12:19.897Z,100.00
2023-05-11T16:15:26.594Z,100.00
2023-05-11T16:18:32.592Z,100.00
2023-05-11T16:21:38.820Z,100.00
2023-05-11T16:24:45.261Z,100.00
2023-05-11T16:27:52.950Z,100.00
2023-05-11T16:30:59.529Z,100.00
2023-05-11T16:34:05.801Z,100.00
2023-05-11T16:37:11.625Z,100.00
2023-05-11T16:40:19.733Z,100.00
2023-05-11T16:43:27.265Z,100.00
2023-05-11T16:46:33.635Z,100.00
2023-05-11T16:49:40.059Z,100.00
2023-05-11T16:52:46.073Z,100.00
2023-05-11T16:55:52.222Z,100.00
2023-05-11T16:58:59.668Z,100.00
2023-05-11T17:02:07.561Z,100.00
2023-05-11T17:05:14.519Z,100.00
2023-05-11T17:08:20.798Z,100.00
2023-05-11T17:11:27.051Z,100.00
2023-05-11T17:14:34.324Z,100.00
2023-05-11T17:17:41.345Z,100.00
2023-05-11T17:20:53.437Z,100.00
2023-05-11T17:23:59.770Z,100.00
2023-05-11T17:27:06.280Z,100.00
2023-05-11T17:30:14.495Z,100.00
2023-05-11T17:33:21.032Z,100.00
2023-05-11T17:36:29.461Z,100.00
2023-05-11T17:39:35.838Z,100.00
2023-05-11T17:42:42.184Z,100.00
2023-05-11T17:45:50.282Z,100.00
2023-05-11T17:48:56.848Z,100.00
2023-05-11T17:52:03.472Z,100.00
2023-05-11T17:55:11.111Z,100.00
2023-05-11T17:58:17.353Z,100.00
2023-05-11T18:01:25.418Z,100.00
2023-05-11T18:04:31.845Z,100.00
2023-05-11T18:07:37.908Z,100.00
2023-05-11T18:10:44.471Z,100.00
2023-05-11T18:13:51.137Z,100.00
2023-05-11T18:16:58.669Z,100.00
2023-05-11T18:20:06.401Z,100.00
2023-05-11T18:23:12.697Z,100.00
2023-05-11T18:26:20.244Z,100.00
2023-05-11T18:29:27.121Z,100.00
2023-05-11T18:32:34.891Z,100.00
2023-05-11T18:35:42.299Z,100.00
2023-05-11T18:38:49.423Z,100.00
2023-05-11T18:41:56.019Z,100.00
2023-05-11T18:45:02.254Z,100.00
2023-05-11T18:48:10.017Z,100.00
2023-05-11T18:51:19.008Z,100.00
2023-05-11T18:54:25.566Z,100.00
2023-05-11T18:57:34.158Z,100.00
2023-05-11T19:00:40.671Z,100.00
2023-05-11T19:03:48.209Z,100.00
2023-05-11T19:06:54.588Z,100.00
2023-05-11T19:10:00.880Z,100.00
2023-05-11T19:13:07.021Z,100.00
2023-05-11T19:16:13.026Z,100.00
2023-05-11T19:19:20.590Z,100.00
2023-05-11T19:22:26.838Z,100.00
2023-05-11T19:25:33.092Z,100.00
2023-05-11T19:28:39.430Z,100.00
2023-05-11T19:31:46.063Z,100.00
2023-05-11T19:34:54.053Z,100.00
2023-05-11T19:38:00.280Z,100.00
2023-05-11T19:41:06.975Z,100.00
2023-05-11T19:44:13.418Z,100.00
2023-05-11T19:47:19.545Z,100.00
2023-05-11T19:50:27.804Z,100.00
2023-05-11T19:53:34.397Z,100.00
2023-05-11T19:56:40.553Z,100.00
2023-05-11T19:59:46.717Z,100.00
2023-05-11T20:02:52.965Z,100.00
2023-05-11T20:06:00.389Z,100.00
2023-05-11T20:09:07.336Z,100.00
2023-05-11T20:12:13.131Z,100.00
2023-05-11T20:15:19.836Z,100.00
2023-05-11T20:18:28.225Z,100.00
2023-05-11T20:21:36.452Z,100.00
2023-05-11T20:24:42.320Z,100.00
2023-05-11T20:27:48.309Z,100.00
2023-05-11T20:30:54.357Z,100.00
2023-05-11T20:37:11.242Z,100.00
2023-05-11T20:40:18.661Z,100.00
2023-05-11T20:43:26.142Z,100.00
2023-05-11T20:46:32.524Z,100.00
2023-05-11T20:49:39.518Z,100.00
2023-05-11T20:52:47.178Z,100.00
2023-05-11T20:55:53.320Z,100.00
2023-05-11T20:58:59.601Z,100.00
2023-05-11T21:02:06.501Z,100.00
2023-05-11T21:05:13.002Z,100.00
2023-05-11T21:08:20.682Z,100.00
2023-05-11T21:11:27.444Z,100.00
2023-05-11T21:14:33.906Z,100.00
2023-05-11T21:17:40.154Z,100.00
2023-05-11T21:20:46.212Z,100.00
2023-05-11T21:23:53.647Z,100.00
2023-05-11T21:26:59.947Z,100.00
2023-05-11T21:30:07.008Z,100.00
2023-05-11T21:33:13.396Z,100.00
2023-05-11T21:36:19.586Z,100.00
2023-05-11T21:39:26.987Z,100.00
2023-05-11T21:42:36.173Z,100.00
2023-05-11T21:45:42.574Z,100.00
2023-05-11T21:48:48.820Z,100.00
2023-05-11T21:51:54.943Z,100.00
2023-05-11T21:55:02.503Z,100.00
2023-05-11T21:58:09.073Z,100.00
2023-05-11T22:01:15.210Z,100.00
2023-05-11T22:04:21.851Z,100.00
2023-05-11T22:07:28.056Z,100.00
2023-05-11T22:10:35.794Z,100.00
2023-05-11T22:13:44.808Z,100.00
2023-05-11T22:16:51.259Z,100.00
2023-05-11T22:19:57.582Z,100.00
2023-05-11T22:23:04.650Z,100.00
2023-05-11T22:26:12.496Z,100.00
2023-05-11T22:29:19.089Z,100.00
2023-05-11T22:32:25.459Z,100.00
2023-05-11T22:35:31.357Z,100.00
2023-05-11T22:38:38.280Z,100.00
2023-05-11T22:41:46.233Z,100.00
2023-05-11T22:44:52.476Z,100.00
2023-05-11T22:47:58.761Z,100.00
2023-05-11T22:51:06.483Z,100.00
2023-05-11T22:54:13.387Z,100.00
2023-05-11T22:57:20.865Z,100.00
2023-05-11T23:00:27.570Z,100.00
2023-05-11T23:03:33.788Z,100.00
2023-05-11T23:06:39.815Z,100.00
2023-05-11T23:09:46.107Z,100.00
2023-05-11T23:12:53.563Z,100.00
2023-05-11T23:15:59.730Z,100.00
2023-05-11T23:19:05.898Z,100.00
2023-05-11T23:22:12.033Z,100.00
2023-05-11T23:25:18.529Z,100.00
2023-05-11T23:28:26.390Z,100.00
2023-05-11T23:31:32.787Z,100.00
2023-05-11T23:34:39.391Z,100.00
2023-05-11T23:37:45.374Z,100.00
2023-05-11T23:40:52.552Z,100.00
2023-05-11T23:44:00.678Z,100.00
2023-05-11T23:47:07.185Z,100.00
2023-05-11T23:50:14.152Z,100.00
2023-05-11T23:53:20.337Z,100.00
2023-05-11T23:56:26.494Z,100.00
2023-05-11T23:59:33.816Z,100.00
